createdAt,value
2023-04-15T00:01:37.494Z,98699.03
2023-04-15T00:03:00.693Z,98694.47
2023-04-15T00:04:25.375Z,98694.84
2023-04-15T00:06:04.286Z,98693.00
2023-04-15T00:07:26.206Z,98697.72
2023-04-15T00:10:46.737Z,98699.16
2023-04-15T00:12:19.466Z,98695.25
2023-04-15T00:13:41.769Z,98694.22
2023-04-15T00:15:12.639Z,98702.06
2023-04-15T00:16:35.142Z,98703.09
2023-04-15T00:17:55.980Z,98694.44
2023-04-15T00:19:21.540Z,98696.47
2023-04-15T00:20:48.080Z,98703.91
2023-04-15T00:22:10.114Z,98693.56
2023-04-15T00:23:32.333Z,98703.91
2023-04-15T00:25:12.069Z,98698.94
2023-04-15T00:26:33.416Z,98700.38
2023-04-15T00:27:55.987Z,98706.81
2023-04-15T00:29:17.988Z,98691.88
2023-04-15T00:30:43.190Z,98695.00
2023-04-15T00:32:04.631Z,98693.38
2023-04-15T00:33:39.985Z,98692.75
2023-04-15T00:36:01.942Z,98697.06
2023-04-15T00:37:28.159Z,98697.50
2023-04-15T00:38:49.740Z,98703.25
2023-04-15T00:40:49.674Z,98700.56
2023-04-15T00:42:27.375Z,98689.84
2023-04-15T00:43:49.501Z,98698.69
2023-04-15T00:47:51.905Z,98705.13
2023-04-15T00:49:24.094Z,98693.56
2023-04-15T00:51:00.314Z,98695.22
2023-04-15T00:52:22.410Z,98689.84
2023-04-15T00:53:48.683Z,98703.28
2023-04-15T00:55:16.997Z,98713.59
2023-04-15T00:56:42.972Z,98714.63
2023-04-15T00:58:09.393Z,98710.69
2023-04-15T01:00:20.435Z,98695.63
2023-04-15T01:01:42.498Z,98705.75
2023-04-15T01:03:15.557Z,98703.06
2023-04-15T01:05:10.896Z,98706.34
2023-04-15T01:07:00.410Z,98711.50
2023-04-15T01:08:21.797Z,98716.25
2023-04-15T01:09:47.568Z,98697.25
2023-04-15T01:11:20.608Z,98703.22
2023-04-15T01:12:58.775Z,98704.25
2023-04-15T01:14:25.109Z,98697.25
2023-04-15T01:15:46.320Z,98696.81
2023-04-15T01:17:09.430Z,98699.50
2023-04-15T01:18:33.759Z,98699.09
2023-04-15T01:20:14.800Z,98697.41
2023-04-15T01:21:38.184Z,98697.81
2023-04-15T01:23:26.261Z,98693.69
2023-04-15T01:24:57.274Z,98696.41
2023-04-15T01:26:21.909Z,98695.53
2023-04-15T01:27:43.182Z,98697.41
2023-04-15T01:29:08.428Z,98710.59
2023-04-15T01:30:35.144Z,98701.09
2023-04-15T01:32:01.193Z,98694.91
2023-04-15T01:34:02.759Z,98697.81
2023-04-15T01:38:20.398Z,98704.03
2023-04-15T01:39:42.951Z,98708.78
2023-04-15T01:41:09.626Z,98702.16
2023-04-15T01:42:34.486Z,98710.59
2023-04-15T01:43:58.862Z,98703.22
2023-04-15T01:45:50.755Z,98722.81
2023-04-15T01:47:19.039Z,98712.09
2023-04-15T01:48:41.520Z,98713.75
2023-04-15T01:50:18.012Z,98714.34
2023-04-15T01:51:56.226Z,98719.09
2023-04-15T01:53:28.014Z,98710.03
2023-04-15T01:55:40.870Z,98714.72
2023-04-15T01:57:05.157Z,98707.72
2023-04-15T01:58:37.346Z,98708.31
2023-04-15T02:00:02.114Z,98719.72
2023-04-15T02:01:40.924Z,98721.97
2023-04-15T02:03:05.506Z,98712.88
2023-04-15T02:04:28.294Z,98709.34
2023-04-15T02:05:54.240Z,98724.44
2023-04-15T02:07:15.715Z,98711.84
2023-04-15T02:08:37.975Z,98713.28
2023-04-15T02:10:04.210Z,98721.75
2023-04-15T02:11:27.447Z,98715.53
2023-04-15T02:13:07.954Z,98721.31
2023-04-15T02:14:35.323Z,98717.59
2023-04-15T02:15:59.991Z,98717.41
2023-04-15T02:17:25.656Z,98731.03
2023-04-15T02:19:06.302Z,98725.03
2023-04-15T02:20:36.965Z,98721.13
2023-04-15T02:22:19.658Z,98720.72
2023-04-15T02:24:02.675Z,98729.63
2023-04-15T02:25:41.318Z,98721.59
2023-04-15T02:27:28.357Z,98730.31
2023-04-15T02:29:49.319Z,98726.38
2023-04-15T02:31:40.838Z,98720.44
2023-04-15T02:33:08.033Z,98740.09
2023-04-15T02:34:31.703Z,98730.41
2023-04-15T02:36:02.832Z,98742.59
2023-04-15T02:37:41.050Z,98728.78
2023-04-15T02:41:03.438Z,98737.88
2023-04-15T02:42:30.498Z,98744.91
2023-04-15T02:44:04.423Z,98740.59
2023-04-15T02:45:28.597Z,98734.78
2023-04-15T02:46:52.754Z,98730.47
2023-04-15T02:48:18.253Z,98731.91
2023-04-15T02:49:40.423Z,98734.81
2023-04-15T02:51:23.537Z,98738.53
2023-04-15T02:52:52.473Z,98739.56
2023-04-15T02:54:15.075Z,98739.56
2023-04-15T02:55:36.884Z,98743.31
2023-04-15T02:57:25.250Z,98738.78
2023-04-15T02:58:50.776Z,98743.09
2023-04-15T03:00:17.860Z,98737.13
2023-04-15T03:02:12.319Z,98747.66
2023-04-15T03:03:59.616Z,98759.84
2023-04-15T03:05:25.610Z,98749.13
2023-04-15T03:06:47.913Z,98755.72
2023-04-15T03:08:58.740Z,98762.56
2023-04-15T03:10:27.898Z,98756.78
2023-04-15T03:11:57.071Z,98760.69
2023-04-15T03:13:22.398Z,98768.75
2023-04-15T03:15:15.465Z,98777.25
2023-04-15T03:16:46.767Z,98789.44
2023-04-15T03:18:29.468Z,98787.16
2023-04-15T03:20:10.682Z,98779.53
2023-04-15T03:21:38.129Z,98779.53
2023-04-15T03:23:31.304Z,98789.66
2023-04-15T03:26:36.476Z,98781.22
2023-04-15T03:28:05.754Z,98788.84
2023-04-15T03:29:34.028Z,98800.84
2023-04-15T03:31:03.324Z,98802.09
2023-04-15T03:32:27.381Z,98808.28
2023-04-15T03:36:40.942Z,98801.25
2023-04-15T03:38:56.293Z,98795.25
2023-04-15T03:43:42.505Z,98812.59
2023-04-15T03:45:19.944Z,98812.22
2023-04-15T03:46:59.042Z,98826.66
2023-04-15T03:48:28.984Z,98834.09
2023-04-15T03:50:21.461Z,98834.53
2023-04-15T03:51:45.788Z,98833.91
2023-04-15T03:53:16.203Z,98837.59
2023-04-15T03:58:23.510Z,98850.81
2023-04-15T03:59:50.163Z,98845.06
2023-04-15T04:01:22.789Z,98848.34
2023-04-15T04:02:46.442Z,98836.56
2023-04-15T04:04:28.177Z,98833.41
2023-04-15T04:05:58.173Z,98846.84
2023-04-15T04:07:25.566Z,98849.94
2023-04-15T04:12:01.576Z,98857.78
2023-04-15T04:14:18.348Z,98864.19
2023-04-15T04:15:40.036Z,98865.00
2023-04-15T04:17:50.142Z,98869.31
2023-04-15T04:25:18.832Z,98870.75
2023-04-15T04:31:25.701Z,98879.81
2023-04-15T04:33:17.620Z,98883.34
2023-04-15T04:35:42.666Z,98889.31
2023-04-15T04:37:28.350Z,98897.59
2023-04-15T04:39:56.957Z,98908.59
2023-04-15T04:41:24.815Z,98899.91
2023-04-15T04:43:39.231Z,98917.69
2023-04-15T04:49:07.071Z,98920.22
2023-04-15T04:50:43.677Z,98921.88
2023-04-15T04:59:22.932Z,98915.72
2023-04-15T05:01:41.850Z,98923.59
2023-04-15T05:03:14.849Z,98913.25
2023-04-15T05:12:44.561Z,98908.53
2023-04-15T05:14:42.939Z,98918.66
2023-04-15T05:16:07.955Z,98922.41
2023-04-15T05:17:55.491Z,98928.19
2023-04-15T05:20:07.132Z,98922.81
2023-04-15T05:23:44.620Z,98921.56
2023-04-15T05:25:15.447Z,98922.38
2023-04-15T05:26:58.485Z,98921.56
2023-04-15T05:29:04.661Z,98931.28
2023-04-15T05:30:36.752Z,98940.78
2023-04-15T05:32:53.777Z,98942.22
2023-04-15T05:34:20.789Z,98935.22
2023-04-15T05:35:53.747Z,98949.88
2023-04-15T05:39:17.089Z,98944.09
2023-04-15T05:41:43.416Z,98957.72
2023-04-15T05:43:22.000Z,98941.78
2023-04-15T05:44:44.585Z,98943.84
2023-04-15T05:46:07.273Z,98942.38
2023-04-15T05:47:35.744Z,98951.50
2023-04-15T05:49:00.395Z,98946.72
2023-04-15T05:50:49.021Z,98958.88
2023-04-15T05:55:06.148Z,98965.44
2023-04-15T05:57:00.961Z,98969.28
2023-04-15T05:58:23.254Z,98956.44
2023-04-15T06:00:18.866Z,98972.97
2023-04-15T06:04:17.412Z,98967.91
2023-04-15T06:06:14.414Z,98971.59
2023-04-15T06:08:04.045Z,98976.50
2023-04-15T06:09:26.667Z,98983.28
2023-04-15T06:10:49.451Z,98986.16
2023-04-15T06:16:04.009Z,98979.44
2023-04-15T06:19:37.704Z,99000.75
2023-04-15T06:24:16.197Z,99001.47
2023-04-15T06:25:38.495Z,98998.09
2023-04-15T06:32:56.235Z,99004.56
2023-04-15T06:36:15.557Z,99015.72
2023-04-15T06:38:02.966Z,99012.91
2023-04-15T06:42:03.575Z,99011.53
2023-04-15T06:43:26.377Z,99000.75
2023-04-15T06:44:54.234Z,98997.19
2023-04-15T06:46:16.594Z,99013.31
2023-04-15T06:47:44.012Z,99020.31
2023-04-15T06:54:39.714Z,99023.53
2023-04-15T06:56:02.259Z,99012.56
2023-04-15T06:57:24.649Z,99023.75
2023-04-15T06:59:11.591Z,99028.56
2023-04-15T07:00:33.905Z,99023.16
2023-04-15T07:01:56.291Z,99025.84
2023-04-15T07:03:20.429Z,99025.25
2023-04-15T07:04:50.692Z,99019.84
2023-04-15T07:06:18.401Z,99019.84
2023-04-15T07:08:48.233Z,99018.91
2023-04-15T07:11:37.254Z,99023.16
2023-04-15T07:13:01.925Z,99031.28
2023-04-15T07:14:32.078Z,99030.69
2023-04-15T07:16:49.856Z,99017.50
2023-04-15T07:18:31.520Z,99019.97
2023-04-15T07:20:28.369Z,99022.44
2023-04-15T07:22:09.093Z,99035.88
2023-04-15T07:23:50.407Z,99022.25
2023-04-15T07:25:23.736Z,99036.84
2023-04-15T07:26:55.285Z,99028.66
2023-04-15T07:28:20.021Z,99030.41
2023-04-15T07:32:59.098Z,99032.91
2023-04-15T07:34:30.705Z,99042.50
2023-04-15T07:37:15.093Z,99056.59
2023-04-15T07:41:43.782Z,99049.38
2023-04-15T07:43:06.128Z,99051.03
2023-04-15T07:45:01.489Z,99053.94
2023-04-15T07:46:39.213Z,99049.81
2023-04-15T07:48:04.928Z,99053.63
2023-04-15T07:50:27.076Z,99061.53
2023-04-15T07:51:53.827Z,99050.69
2023-04-15T07:53:46.882Z,99056.38
2023-04-15T07:55:10.150Z,99053.84
2023-04-15T07:56:32.764Z,99053.16
2023-04-15T07:57:59.642Z,99054.53
2023-04-15T07:59:30.267Z,99053.97
2023-04-15T08:01:27.057Z,99040.44
2023-04-15T08:03:36.255Z,99058.56
2023-04-15T08:05:23.476Z,99058.34
2023-04-15T08:06:57.247Z,99054.47
2023-04-15T08:08:52.913Z,99052.31
2023-04-15T08:11:18.267Z,99060.66
2023-04-15T08:12:57.937Z,99062.22
2023-04-15T08:14:46.409Z,99059.91
2023-04-15T08:16:48.452Z,99075.72
2023-04-15T08:21:20.501Z,99074.22
2023-04-15T08:23:38.881Z,99081.97
2023-04-15T08:25:07.085Z,99074.78
2023-04-15T08:26:43.453Z,99074.28
2023-04-15T08:32:07.864Z,99089.88
2023-04-15T08:33:44.738Z,99090.16
2023-04-15T08:35:22.371Z,99091.13
2023-04-15T08:37:07.164Z,99103.44
2023-04-15T08:38:44.933Z,99114.53
2023-04-15T08:40:21.519Z,99126.09
2023-04-15T08:41:55.401Z,99137.06
2023-04-15T08:43:38.393Z,99132.78
2023-04-15T08:45:06.540Z,99126.38
2023-04-15T08:46:51.058Z,99124.13
2023-04-15T08:48:18.122Z,99125.63
2023-04-15T08:49:45.446Z,99122.59
2023-04-15T08:51:16.478Z,99141.06
2023-04-15T08:52:53.324Z,99146.19
2023-04-15T08:54:24.243Z,99136.03
2023-04-15T08:56:07.234Z,99156.00
2023-04-15T08:57:41.984Z,99134.66
2023-04-15T08:59:07.793Z,99146.03
2023-04-15T09:00:43.095Z,99151.03
2023-04-15T09:02:24.266Z,99148.47
2023-04-15T09:07:11.257Z,99140.19
2023-04-15T09:09:28.458Z,99143.13
2023-04-15T09:10:51.508Z,99139.06
2023-04-15T09:12:21.267Z,99130.50
2023-04-15T09:13:47.482Z,99132.84
2023-04-15T09:15:25.635Z,99129.56
2023-04-15T09:17:08.054Z,99128.16
2023-04-15T09:18:46.769Z,99132.34
2023-04-15T09:22:08.726Z,99134.34
2023-04-15T09:23:39.502Z,99130.88
2023-04-15T09:28:50.656Z,99140.00
2023-04-15T09:30:39.647Z,99143.66
2023-04-15T09:34:32.835Z,99143.22
2023-04-15T09:36:11.422Z,99126.00
2023-04-15T09:37:42.334Z,99138.28
2023-04-15T09:39:07.729Z,99125.44
2023-04-15T09:40:45.088Z,99132.97
2023-04-15T09:42:10.968Z,99140.41
2023-04-15T09:44:19.082Z,99140.16
2023-04-15T09:45:49.620Z,99143.16
2023-04-15T09:47:33.267Z,99136.81
2023-04-15T09:49:37.062Z,99139.00
2023-04-15T09:51:03.467Z,99146.59
2023-04-15T09:52:32.339Z,99147.34
2023-04-15T09:53:58.080Z,99141.44
2023-04-15T09:56:10.608Z,99153.22
2023-04-15T09:57:44.567Z,99148.34
2023-04-15T10:01:12.016Z,99151.50
2023-04-15T10:02:59.157Z,99159.81
2023-04-15T10:04:39.114Z,99166.81
2023-04-15T10:06:30.890Z,99166.19
2023-04-15T10:08:34.230Z,99146.84
2023-04-15T10:10:02.325Z,99149.88
2023-04-15T10:11:25.698Z,99151.38
2023-04-15T10:12:48.334Z,99150.19
2023-04-15T10:14:12.557Z,99156.19
2023-04-15T10:15:44.076Z,99152.88
2023-04-15T10:17:13.744Z,99160.06
2023-04-15T10:18:45.622Z,99162.00
2023-04-15T10:20:15.069Z,99137.97
2023-04-15T10:21:44.812Z,99137.72
2023-04-15T10:23:11.548Z,99137.53
2023-04-15T10:24:39.673Z,99145.16
2023-04-15T10:26:06.749Z,99132.53
2023-04-15T10:27:29.806Z,99136.16
2023-04-15T10:28:52.652Z,99140.75
2023-04-15T10:30:23.119Z,99141.94
2023-04-15T10:31:48.652Z,99137.44
2023-04-15T10:33:11.460Z,99126.47
2023-04-15T10:34:36.854Z,99133.19
2023-04-15T10:36:04.936Z,99131.94
2023-04-15T10:37:56.383Z,99132.66
2023-04-15T10:40:00.140Z,99135.66
2023-04-15T10:41:31.334Z,99131.81
2023-04-15T10:42:52.978Z,99131.97
2023-04-15T10:44:18.610Z,99130.59
2023-04-15T10:45:42.220Z,99136.75
2023-04-15T10:47:12.777Z,99138.81
2023-04-15T10:48:38.052Z,99125.88
2023-04-15T10:50:20.376Z,99138.16
2023-04-15T10:51:46.046Z,99136.50
2023-04-15T10:53:14.606Z,99141.94
2023-04-15T10:54:39.110Z,99142.03
2023-04-15T10:56:02.328Z,99140.69
2023-04-15T10:57:38.778Z,99146.81
2023-04-15T10:59:10.812Z,99155.56
2023-04-15T11:00:37.681Z,99150.25
2023-04-15T11:02:36.544Z,99153.50
2023-04-15T11:04:05.955Z,99143.00
2023-04-15T11:05:55.011Z,99143.75
2023-04-15T11:07:44.533Z,99151.88
2023-04-15T11:09:48.437Z,99147.31
2023-04-15T11:11:13.331Z,99148.47
2023-04-15T11:12:37.778Z,99145.19
2023-04-15T11:14:07.082Z,99148.19
2023-04-15T11:15:57.116Z,99150.91
2023-04-15T11:17:29.959Z,99149.28
2023-04-15T11:18:56.525Z,99143.00
2023-04-15T11:20:25.804Z,99149.84
2023-04-15T11:21:48.518Z,99142.19
2023-04-15T11:23:14.607Z,99160.25
2023-04-15T11:26:18.296Z,99163.81
2023-04-15T11:27:46.214Z,99151.53
2023-04-15T11:29:08.806Z,99164.19
2023-04-15T11:30:31.275Z,99152.19
2023-04-15T11:31:53.613Z,99167.75
2023-04-15T11:33:16.658Z,99172.66
2023-04-15T11:34:39.050Z,99165.81
2023-04-15T11:36:04.498Z,99166.34
2023-04-15T11:37:30.884Z,99157.53
2023-04-15T11:38:59.851Z,99158.53
2023-04-15T11:40:52.866Z,99157.03
2023-04-15T11:42:31.478Z,99178.91
2023-04-15T11:43:58.445Z,99172.66
2023-04-15T11:45:20.582Z,99167.25
2023-04-15T11:46:44.440Z,99176.88
2023-04-15T11:48:18.092Z,99170.06
2023-04-15T11:49:41.729Z,99172.00
2023-04-15T11:51:05.468Z,99166.78
2023-04-15T11:52:30.650Z,99160.81
2023-04-15T11:53:54.816Z,99168.75
2023-04-15T11:55:17.196Z,99171.22
2023-04-15T11:56:39.626Z,99167.69
2023-04-15T11:58:10.017Z,99163.34
2023-04-15T11:59:46.023Z,99165.53
2023-04-15T12:01:17.300Z,99172.38
2023-04-15T12:02:39.379Z,99172.38
2023-04-15T12:04:25.952Z,99177.84
2023-04-15T12:06:13.345Z,99171.56
2023-04-15T12:07:42.916Z,99175.66
2023-04-15T12:09:13.274Z,99176.75
2023-04-15T12:10:38.791Z,99176.75
2023-04-15T12:12:01.028Z,99169.13
2023-04-15T12:13:22.479Z,99177.03
2023-04-15T12:14:44.977Z,99171.00
2023-04-15T12:16:10.683Z,99179.75
2023-04-15T12:17:50.810Z,99178.94
2023-04-15T12:19:16.629Z,99186.59
2023-04-15T12:20:45.946Z,99182.78
2023-04-15T12:22:17.994Z,99188.81
2023-04-15T12:24:07.705Z,99187.75
2023-04-15T12:25:37.639Z,99186.38
2023-04-15T12:27:04.487Z,99188.81
2023-04-15T12:28:27.264Z,99194.56
2023-04-15T12:29:51.808Z,99188.81
2023-04-15T12:31:16.293Z,99191.00
2023-04-15T12:32:45.441Z,99189.91
2023-04-15T12:34:11.692Z,99184.44
2023-04-15T12:35:34.162Z,99187.44
2023-04-15T12:36:56.437Z,99190.44
2023-04-15T12:38:18.966Z,99191.56
2023-04-15T12:39:45.683Z,99191.81
2023-04-15T12:41:08.262Z,99186.09
2023-04-15T12:42:37.672Z,99183.88
2023-04-15T12:44:03.000Z,99188.28
2023-04-15T12:45:25.665Z,99191.00
2023-04-15T12:46:48.184Z,99190.19
2023-04-15T12:48:10.180Z,99188.81
2023-04-15T12:49:33.031Z,99189.34
2023-04-15T12:50:56.340Z,99185.22
2023-04-15T12:52:18.957Z,99188.53
2023-04-15T12:53:52.676Z,99191.00
2023-04-15T12:55:14.985Z,99185.47
2023-04-15T12:56:39.703Z,99189.84
2023-04-15T12:58:01.838Z,99195.84
2023-04-15T12:59:27.297Z,99197.47
2023-04-15T13:00:52.938Z,99193.63
2023-04-15T13:02:28.628Z,99196.91
2023-04-15T13:03:53.630Z,99194.19
2023-04-15T13:05:16.518Z,99194.72
2023-04-15T13:06:38.625Z,99185.31
2023-04-15T13:08:01.018Z,99189.09
2023-04-15T13:09:23.059Z,99183.91
2023-04-15T13:10:44.214Z,99194.78
2023-04-15T13:12:08.096Z,99189.00
2023-04-15T13:13:32.057Z,99189.75
2023-04-15T13:14:54.584Z,99184.47
2023-04-15T13:16:16.716Z,99196.88
2023-04-15T13:17:39.805Z,99196.44
2023-04-15T13:19:03.375Z,99206.31
2023-04-15T13:20:27.129Z,99200.09
2023-04-15T13:21:49.356Z,99198.25
2023-04-15T13:23:12.473Z,99196.34
2023-04-15T13:24:34.668Z,99201.81
2023-04-15T13:26:14.280Z,99203.69
2023-04-15T13:27:41.514Z,99194.81
2023-04-15T13:29:03.816Z,99208.53
2023-04-15T13:30:35.799Z,99203.59
2023-04-15T13:32:07.100Z,99212.06
2023-04-15T13:33:36.028Z,99195.91
2023-04-15T13:35:05.439Z,99208.22
2023-04-15T13:36:30.425Z,99207.78
2023-04-15T13:37:53.183Z,99209.97
2023-04-15T13:39:47.821Z,99210.72
2023-04-15T13:41:12.877Z,99207.81
2023-04-15T13:42:41.136Z,99204.88
2023-04-15T13:44:10.614Z,99208.56
2023-04-15T13:45:33.537Z,99207.41
2023-04-15T13:47:09.419Z,99202.09
2023-04-15T13:48:31.756Z,99199.88
2023-04-15T13:49:56.626Z,99199.88
2023-04-15T13:51:24.694Z,99196.94
2023-04-15T13:52:48.512Z,99204.16
2023-04-15T13:54:12.767Z,99201.06
2023-04-15T13:55:35.892Z,99205.91
2023-04-15T13:57:02.249Z,99202.22
2023-04-15T13:58:24.899Z,99202.13
2023-04-15T13:59:49.628Z,99190.22
2023-04-15T14:01:12.001Z,99204.38
2023-04-15T14:02:35.225Z,99204.84
2023-04-15T14:03:58.970Z,99202.59
2023-04-15T14:05:22.132Z,99203.31
2023-04-15T14:06:47.755Z,99198.34
2023-04-15T14:08:13.724Z,99196.59
2023-04-15T14:09:42.972Z,99197.88
2023-04-15T14:11:05.964Z,99196.09
2023-04-15T14:12:28.404Z,99202.81
2023-04-15T14:13:50.840Z,99197.25
2023-04-15T14:15:15.192Z,99198.34
2023-04-15T14:16:37.836Z,99205.88
2023-04-15T14:18:00.187Z,99205.88
2023-04-15T14:19:26.678Z,99205.88
2023-04-15T14:20:49.894Z,99206.69
2023-04-15T14:22:24.197Z,99199.63
2023-04-15T14:23:52.555Z,99203.38
2023-04-15T14:25:23.052Z,99203.97
2023-04-15T14:26:49.040Z,99205.38
2023-04-15T14:28:11.552Z,99211.63
2023-04-15T14:29:35.775Z,99209.28
2023-04-15T14:30:59.628Z,99210.25
2023-04-15T14:32:21.863Z,99217.81
2023-04-15T14:33:45.360Z,99207.44
2023-04-15T14:35:08.243Z,99209.19
2023-04-15T14:36:32.090Z,99215.56
2023-04-15T14:37:56.462Z,99227.22
2023-04-15T14:39:18.456Z,99219.34
2023-04-15T14:40:40.790Z,99218.16
2023-04-15T14:42:02.139Z,99219.44
2023-04-15T14:43:24.613Z,99214.50
2023-04-15T14:44:46.769Z,99224.16
2023-04-15T14:46:09.271Z,99214.97
2023-04-15T14:47:32.406Z,99220.38
2023-04-15T14:48:54.694Z,99225.00
2023-04-15T14:50:21.378Z,99225.00
2023-04-15T14:51:44.578Z,99214.38
2023-04-15T14:53:14.231Z,99227.25
2023-04-15T14:54:36.439Z,99226.88
2023-04-15T14:55:58.483Z,99228.19
2023-04-15T14:57:20.324Z,99223.72
2023-04-15T14:58:45.344Z,99237.53
2023-04-15T15:00:10.058Z,99234.44
2023-04-15T15:01:33.656Z,99230.31
2023-04-15T15:02:56.006Z,99237.53
2023-04-15T15:04:18.701Z,99237.75
2023-04-15T15:05:41.425Z,99234.16
2023-04-15T15:07:06.187Z,99238.97
2023-04-15T15:08:28.626Z,99240.50
2023-04-15T15:09:51.042Z,99244.50
2023-04-15T15:11:13.355Z,99251.66
2023-04-15T15:12:36.435Z,99244.59
2023-04-15T15:14:00.948Z,99232.78
2023-04-15T15:15:29.604Z,99231.56
2023-04-15T15:16:53.156Z,99237.19
2023-04-15T15:18:16.938Z,99249.31
2023-04-15T15:19:39.425Z,99248.84
2023-04-15T15:21:01.946Z,99237.41
2023-04-15T15:22:39.640Z,99246.97
2023-04-15T15:26:29.101Z,99235.50
2023-04-15T15:28:01.489Z,99242.09
2023-04-15T15:29:24.400Z,99248.94
2023-04-15T15:31:13.294Z,99249.75
2023-04-15T15:32:57.466Z,99258.81
2023-04-15T15:34:26.970Z,99255.06
2023-04-15T15:36:04.140Z,99258.09
2023-04-15T15:40:26.594Z,99262.84
2023-04-15T15:47:43.293Z,99276.75
2023-04-15T15:49:42.838Z,99276.34
2023-04-15T15:51:50.224Z,99286.25
2023-04-15T15:53:25.515Z,99291.84
2023-04-15T15:56:34.040Z,99267.91
2023-04-15T16:01:18.209Z,99282.00
2023-04-15T16:04:19.082Z,99286.72
2023-04-15T16:05:44.934Z,99292.38
2023-04-15T16:07:09.782Z,99280.22
2023-04-15T16:09:11.163Z,99293.78
2023-04-15T16:10:39.888Z,99299.34
2023-04-15T16:12:11.007Z,99293.34
2023-04-15T16:13:36.860Z,99293.44
2023-04-15T16:14:59.664Z,99300.16
2023-04-15T16:18:38.278Z,99286.09
2023-04-15T16:22:14.285Z,99310.88
2023-04-15T16:27:13.750Z,99293.47
2023-04-15T16:30:14.694Z,99313.72
2023-04-15T16:36:40.752Z,99321.34
2023-04-15T16:38:38.453Z,99321.50
2023-04-15T16:40:16.051Z,99326.28
2023-04-15T16:41:42.862Z,99333.66
2023-04-15T16:43:14.895Z,99323.81
2023-04-15T16:44:35.838Z,99343.44
2023-04-15T16:45:57.809Z,99334.34
2023-04-15T16:49:44.163Z,99336.50
2023-04-15T16:52:13.420Z,99337.72
2023-04-15T16:56:30.691Z,99345.91
2023-04-15T17:00:19.763Z,99340.63
2023-04-15T17:01:47.521Z,99347.47
2023-04-15T17:05:49.866Z,99359.00
2023-04-15T17:19:47.651Z,99380.75
2023-04-15T17:22:48.358Z,99383.09
2023-04-15T17:25:04.786Z,99387.72
2023-04-15T17:26:35.765Z,99378.63
2023-04-15T17:28:05.949Z,99373.66
2023-04-15T17:29:37.746Z,99378.44
2023-04-15T17:31:04.676Z,99389.66
2023-04-15T17:32:52.770Z,99388.63
2023-04-15T17:34:22.321Z,99392.00
2023-04-15T17:36:07.880Z,99392.00
2023-04-15T17:37:52.270Z,99389.50
2023-04-15T17:40:02.997Z,99400.13
2023-04-15T17:41:28.990Z,99396.41
2023-04-15T17:43:02.262Z,99406.59
2023-04-15T17:44:47.259Z,99414.47
2023-04-15T17:46:10.496Z,99408.03
2023-04-15T17:47:44.792Z,99398.50
2023-04-15T17:49:22.828Z,99414.69
2023-04-15T17:50:52.559Z,99412.84
2023-04-15T17:52:22.100Z,99415.31
2023-04-15T17:53:44.674Z,99428.19
2023-04-15T17:55:22.311Z,99436.31
2023-04-15T17:56:49.920Z,99448.16
2023-04-15T17:58:40.832Z,99440.91
2023-04-15T18:00:05.966Z,99446.72
2023-04-15T18:01:40.174Z,99439.88
2023-04-15T18:03:04.870Z,99455.84
2023-04-15T18:04:30.774Z,99439.25
2023-04-15T18:06:22.179Z,99464.59
2023-04-15T18:09:00.353Z,99456.69
2023-04-15T18:10:39.173Z,99466.03
2023-04-15T18:12:43.971Z,99471.22
2023-04-15T18:14:34.091Z,99462.31
2023-04-15T18:16:10.947Z,99478.72
2023-04-15T18:17:39.398Z,99472.69
2023-04-15T18:19:11.039Z,99480.59
2023-04-15T18:21:13.493Z,99471.44
2023-04-15T18:23:45.813Z,99492.19
2023-04-15T18:25:15.743Z,99487.63
2023-04-15T18:26:40.547Z,99503.81
2023-04-15T18:28:02.895Z,99502.56
2023-04-15T18:29:29.164Z,99504.25
2023-04-15T18:30:58.574Z,99501.13
2023-04-15T18:32:30.598Z,99510.03
2023-04-15T18:34:18.176Z,99509.84
2023-04-15T18:35:58.183Z,99505.50
2023-04-15T18:37:40.965Z,99509.41
2023-04-15T18:40:06.103Z,99506.31
2023-04-15T18:41:33.448Z,99514.00
2023-04-15T18:43:00.549Z,99509.25
2023-04-15T18:44:25.094Z,99518.56
2023-04-15T18:45:56.266Z,99514.19
2023-04-15T18:47:28.676Z,99521.28
2023-04-15T18:49:00.369Z,99519.19
2023-04-15T18:50:25.747Z,99524.38
2023-04-15T18:51:51.592Z,99519.41
2023-04-15T18:53:55.167Z,99531.25
2023-04-15T18:56:40.729Z,99540.78
2023-04-15T18:59:27.657Z,99528.50
2023-04-15T19:07:23.776Z,99536.13
2023-04-15T19:09:22.277Z,99554.00
2023-04-15T19:15:04.781Z,99559.56
2023-04-15T19:18:22.040Z,99571.41
2023-04-15T19:23:28.838Z,99556.03
2023-04-15T19:33:32.389Z,99560.38
2023-04-15T19:35:51.988Z,99573.88
2023-04-15T19:37:14.896Z,99570.56
2023-04-15T19:38:38.114Z,99581.97
2023-04-15T19:40:02.628Z,99581.78
2023-04-15T19:41:24.974Z,99573.06
2023-04-15T19:42:47.880Z,99573.06
2023-04-15T19:44:17.020Z,99593.81
2023-04-15T19:45:42.030Z,99593.81
2023-04-15T19:47:04.455Z,99590.28
2023-04-15T19:48:30.083Z,99584.06
2023-04-15T19:49:53.499Z,99585.53
2023-04-15T19:51:15.721Z,99576.56
2023-04-15T19:52:40.058Z,99591.09
2023-04-15T19:54:04.619Z,99581.78
2023-04-15T19:55:26.003Z,99580.09
2023-04-15T19:56:48.674Z,99596.09
2023-04-15T19:58:10.834Z,99582.59
2023-04-15T19:59:32.983Z,99599.84
2023-04-15T20:00:55.998Z,99583.25
2023-04-15T20:02:21.277Z,99584.25
2023-04-15T20:03:43.665Z,99592.56
2023-04-15T20:05:10.336Z,99587.16
2023-04-15T20:06:32.893Z,99587.59
2023-04-15T20:07:59.716Z,99588.00
2023-04-15T20:09:23.865Z,99598.41
2023-04-15T20:10:46.486Z,99601.91
2023-04-15T20:12:50.326Z,99599.63
2023-04-15T20:13:54.672Z,99608.38
2023-04-15T20:17:35.188Z,99614.97
2023-04-15T20:19:07.491Z,99614.38
2023-04-15T20:20:29.804Z,99615.38
2023-04-15T20:21:52.703Z,99612.28
2023-04-15T20:23:15.354Z,99624.09
2023-04-15T20:24:39.169Z,99625.75
2023-04-15T20:26:03.552Z,99619.53
2023-04-15T20:27:28.492Z,99614.16
2023-04-15T20:28:50.812Z,99619.75
2023-04-15T20:30:15.763Z,99617.66
2023-04-15T20:31:46.170Z,99628.44
2023-04-15T20:33:17.434Z,99620.59
2023-04-15T20:34:42.913Z,99623.47
2023-04-15T20:36:26.337Z,99611.22
2023-04-15T20:38:02.923Z,99623.47
2023-04-15T20:42:54.456Z,99630.69
2023-04-15T20:46:57.429Z,99616.13
2023-04-15T20:48:24.813Z,99629.66
2023-04-15T20:50:26.853Z,99623.22
2023-04-15T20:52:12.883Z,99629.44
2023-04-15T20:53:38.470Z,99626.72
2023-04-15T20:55:00.136Z,99635.00
2023-04-15T20:56:23.872Z,99638.34
2023-04-15T20:57:49.456Z,99630.84
2023-04-15T20:59:13.461Z,99622.53
2023-04-15T21:00:42.196Z,99632.94
2023-04-15T21:02:09.427Z,99629.59
2023-04-15T21:03:49.713Z,99627.91
2023-04-15T21:05:16.346Z,99632.72
2023-04-15T21:06:45.252Z,99633.72
2023-04-15T21:08:08.761Z,99648.91
2023-04-15T21:09:32.877Z,99640.56
2023-04-15T21:10:56.736Z,99643.72
2023-04-15T21:12:19.256Z,99656.34
2023-04-15T21:14:09.879Z,99646.78
2023-04-15T21:15:32.432Z,99648.66
2023-04-15T21:16:58.889Z,99651.38
2023-04-15T21:18:24.804Z,99652.59
2023-04-15T21:19:46.012Z,99654.88
2023-04-15T21:21:08.350Z,99656.34
2023-04-15T21:22:33.755Z,99661.91
2023-04-15T21:23:54.980Z,99665.84
2023-04-15T21:25:17.444Z,99663.34
2023-04-15T21:26:39.394Z,99666.88
2023-04-15T21:28:05.022Z,99663.72
2023-04-15T21:29:30.914Z,99657.28
2023-04-15T21:30:57.383Z,99654.13
2023-04-15T21:32:22.543Z,99652.84
2023-04-15T21:33:55.993Z,99660.53
2023-04-15T21:35:24.772Z,99667.13
2023-04-15T21:36:49.010Z,99651.53